Time;durP1;ratioP1;P1;durP2;ratioP2;P2;SDS_P1;SDS_P2;PMS_P1;PMS_P2;Temp;Humidity;BMP_temperature;BMP_pressure;BME280_temperature;BME280_humidity;BME280_pressure;Samples;Min_cycle;Max_cycle;Signal;HPM_P1;HPM_P2
2022/09/18 00:01:31;;;;;;;3.20;1.20;;;9.10;99.90;;;;;;5049058;28;20488;-69
2022/09/18 00:04:00;;;;;;;1.45;0.90;;;9.10;99.90;;;;;;5049942;28;20228;-69
2022/09/18 00:06:29;;;;;;;2.10;1.00;;;9.10;99.90;;;;;;5050001;28;20585;-68
2022/09/18 00:09:00;;;;;;;2.10;1.52;;;9.10;99.90;;;;;;5050072;28;20699;-68
2022/09/18 00:11:29;;;;;;;3.50;1.80;;;9.00;99.90;;;;;;5049250;28;20228;-68
2022/09/18 00:13:56;;;;;;;9.52;1.80;;;9.00;99.90;;;;;;5050083;28;20228;-68
2022/09/18 00:16:25;;;;;;;2.00;1.80;;;9.00;99.90;;;;;;5049699;28;20207;-68
2022/09/18 00:18:52;;;;;;;1.80;1.30;;;9.00;99.90;;;;;;5050144;28;20212;-69
2022/09/18 00:21:20;;;;;;;2.45;1.25;;;9.10;99.90;;;;;;5049030;28;20197;-68
2022/09/18 00:23:47;;;;;;;1.55;1.42;;;9.10;99.90;;;;;;5050010;28;20225;-68
2022/09/18 00:26:17;;;;;;;2.25;1.20;;;9.00;99.90;;;;;;5049986;28;20229;-68
2022/09/18 00:28:44;;;;;;;1.98;1.50;;;9.00;99.90;;;;;;5049936;28;20213;-69
2022/09/18 00:31:14;;;;;;;5.70;1.58;;;9.00;99.90;;;;;;5049515;28;20739;-68
2022/09/18 00:33:41;;;;;;;2.47;1.63;;;9.00;99.90;;;;;;5049742;28;20228;-68
2022/09/18 00:36:10;;;;;;;2.15;1.50;;;9.00;99.90;;;;;;5051092;28;20202;-68
2022/09/18 00:38:37;;;;;;;1.75;1.17;;;9.00;99.90;;;;;;5053269;28;20207;-68
2022/09/18 00:41:06;;;;;;;2.88;1.50;;;9.00;99.90;;;;;;5053559;28;20201;-67
2022/09/18 00:43:36;;;;;;;1.75;1.30;;;9.00;99.90;;;;;;5052733;28;20252;-68
2022/09/18 00:46:06;;;;;;;2.08;1.30;;;9.00;99.90;;;;;;5053405;28;20208;-68
2022/09/18 00:48:42;;;;;;;7.50;1.63;;;9.00;99.90;;;;;;5053433;28;20197;-68
2022/09/18 00:51:09;;;;;;;2.42;1.70;;;9.00;99.90;;;;;;5052665;28;20223;-68
2022/09/18 00:53:40;;;;;;;2.15;1.60;;;9.00;99.90;;;;;;5053022;28;20700;-68
2022/09/18 00:56:09;;;;;;;1.63;1.30;;;9.00;99.90;;;;;;5052844;28;20220;-67
2022/09/18 00:58:37;;;;;;;4.10;1.45;;;9.00;99.90;;;;;;5052988;28;20209;-68
2022/09/18 01:01:03;;;;;;;1.70;1.60;;;9.10;99.90;;;;;;5052836;28;20667;-68
2022/09/18 01:03:30;;;;;;;2.05;1.50;;;9.00;99.90;;;;;;5052310;28;20228;-68
2022/09/18 01:06:09;;;;;;;1.30;1.13;;;9.10;99.90;;;;;;5053113;28;20208;-67
2022/09/18 01:08:42;;;;;;;1.77;1.13;;;9.00;99.90;;;;;;5052593;28;20231;-68
2022/09/18 01:11:22;;;;;;;1.60;1.40;;;9.10;99.90;;;;;;5052682;28;20615;-68
2022/09/18 01:14:01;;;;;;;1.33;1.10;;;9.00;99.90;;;;;;5052903;28;20224;-68
2022/09/18 01:16:33;;;;;;;1.10;1.00;;;9.00;99.90;;;;;;5052861;28;20244;-68
2022/09/18 01:19:10;;;;;;;3.05;1.00;;;9.10;99.90;;;;;;5052505;28;20695;-68
2022/09/18 01:21:44;;;;;;;5.20;1.58;;;9.00;99.90;;;;;;5052186;28;20211;-68
2022/09/18 01:24:39;;;;;;;2.15;1.33;;;9.00;99.90;;;;;;5052573;28;20236;-67
2022/09/18 01:27:09;;;;;;;1.92;1.50;;;9.00;99.90;;;;;;5053380;28;20213;-68
2022/09/18 01:29:45;;;;;;;2.85;1.40;;;9.10;99.90;;;;;;5052981;28;20219;-68
2022/09/18 01:32:19;;;;;;;3.17;1.30;;;9.10;99.90;;;;;;5051593;28;20226;-68
2022/09/18 01:34:50;;;;;;;2.95;1.40;;;9.10;99.90;;;;;;5052652;28;20201;-68
2022/09/18 01:37:25;;;;;;;3.70;1.35;;;9.20;99.90;;;;;;5052093;28;20227;-68
2022/09/18 01:39:55;;;;;;;1.65;1.10;;;9.10;99.90;;;;;;5052711;28;20205;-68
2022/09/18 01:42:26;;;;;;;3.35;1.70;;;9.10;99.90;;;;;;5051430;28;20228;-68
2022/09/18 01:44:57;;;;;;;3.13;1.83;;;9.10;99.90;;;;;;5052436;28;20209;-68
2022/09/18 01:47:30;;;;;;;4.65;1.70;;;9.20;99.90;;;;;;5051653;28;20215;-68
2022/09/18 01:50:00;;;;;;;2.35;1.38;;;9.20;99.90;;;;;;5052144;28;20243;-68
2022/09/18 01:52:30;;;;;;;1.55;1.35;;;9.20;99.90;;;;;;5051280;28;20260;-68
2022/09/18 01:55:00;;;;;;;3.85;1.48;;;9.20;99.90;;;;;;5051954;28;20691;-68
2022/09/18 01:57:32;;;;;;;1.58;1.15;;;9.20;99.90;;;;;;5051896;28;20221;-68
2022/09/18 02:00:05;;;;;;;1.27;1.17;;;9.10;99.90;;;;;;5051884;28;20205;-68
2022/09/18 02:02:37;;;;;;;1.58;1.10;;;9.20;99.90;;;;;;5051141;28;20664;-67
2022/09/18 02:05:09;;;;;;;2.13;1.52;;;9.20;99.90;;;;;;5051790;28;20208;-68
2022/09/18 02:07:45;;;;;;;4.47;1.30;;;9.20;99.90;;;;;;5051923;28;20614;-68
2022/09/18 02:10:12;;;;;;;5.95;1.40;;;9.10;99.90;;;;;;5051443;28;20292;-68
2022/09/18 02:12:43;;;;;;;1.50;1.00;;;9.10;99.90;;;;;;5051033;28;20221;-68
2022/09/18 02:15:13;;;;;;;1.25;0.90;;;9.10;99.90;;;;;;5051821;28;20202;-68
2022/09/18 02:17:43;;;;;;;3.20;1.35;;;9.10;99.90;;;;;;5051584;28;20218;-68
2022/09/18 02:20:15;;;;;;;1.13;1.02;;;9.20;99.90;;;;;;5051879;28;20242;-68
2022/09/18 02:22:44;;;;;;;6.38;1.45;;;9.10;99.90;;;;;;5050749;28;20232;-68
2022/09/18 02:25:13;;;;;;;1.45;1.10;;;9.10;99.90;;;;;;5051551;28;20233;-68
2022/09/18 02:27:41;;;;;;;3.22;1.27;;;9.10;99.90;;;;;;5051401;28;20213;-68
2022/09/18 02:30:09;;;;;;;1.40;1.30;;;9.10;99.90;;;;;;5051322;28;20221;-67
2022/09/18 02:32:38;;;;;;;2.08;1.10;;;9.10;99.90;;;;;;5050476;28;20228;-68
2022/09/18 02:35:08;;;;;;;2.30;1.45;;;9.10;99.90;;;;;;5051146;28;20208;-68
2022/09/18 02:37:44;;;;;;;3.47;1.42;;;9.10;99.90;;;;;;5051220;28;20209;-68
2022/09/18 02:40:23;;;;;;;1.38;1.15;;;9.10;99.90;;;;;;5051000;28;20210;-67
2022/09/18 02:43:00;;;;;;;3.58;1.15;;;9.10;99.90;;;;;;5050565;28;20730;-68
2022/09/18 02:45:33;;;;;;;4.00;1.42;;;9.10;99.90;;;;;;5050834;28;20208;-68
2022/09/18 02:48:12;;;;;;;1.77;1.20;;;9.10;99.90;;;;;;5051350;28;20626;-69
2022/09/18 02:50:47;;;;;;;1.48;1.27;;;9.10;99.90;;;;;;5050843;28;20239;-68
2022/09/18 02:53:22;;;;;;;1.90;1.20;;;9.10;99.90;;;;;;5050369;28;20231;-68
2022/09/18 02:55:54;;;;;;;4.53;1.65;;;9.10;99.90;;;;;;5050926;28;20681;-68
2022/09/18 02:58:29;;;;;;;1.85;1.40;;;9.10;99.90;;;;;;5050248;28;20211;-68
2022/09/18 03:00:58;;;;;;;4.85;1.73;;;9.10;99.90;;;;;;5050887;28;20245;-68
2022/09/18 03:03:30;;;;;;;2.15;1.40;;;9.10;99.90;;;;;;5049858;28;20225;-68
2022/09/18 03:05:57;;;;;;;1.55;1.27;;;9.10;99.90;;;;;;5051047;28;20200;-68
2022/09/18 03:08:25;;;;;;;2.72;1.40;;;9.10;99.90;;;;;;5050535;28;20647;-68
2022/09/18 03:10:51;;;;;;;1.45;1.10;;;9.10;99.90;;;;;;5050775;28;20209;-68
2022/09/18 03:13:18;;;;;;;3.30;1.40;;;9.10;99.90;;;;;;5049890;28;20225;-68
2022/09/18 03:15:45;;;;;;;1.55;1.33;;;9.10;99.90;;;;;;5050574;28;20208;-68
2022/09/18 03:18:13;;;;;;;1.20;1.10;;;9.10;99.90;;;;;;5050880;28;20606;-68
2022/09/18 03:20:42;;;;;;;2.20;1.25;;;9.10;99.90;;;;;;5050226;28;20292;-68
2022/09/18 03:23:09;;;;;;;1.27;1.02;;;9.00;99.90;;;;;;5050069;28;20758;-68
2022/09/18 03:25:36;;;;;;;1.35;1.25;;;9.00;99.90;;;;;;5050249;28;20213;-68
2022/09/18 03:28:03;;;;;;;1.52;1.08;;;9.10;99.90;;;;;;5050724;28;20205;-68
2022/09/18 03:30:30;;;;;;;3.15;1.40;;;9.10;99.90;;;;;;5050294;28;20202;-68
2022/09/18 03:32:57;;;;;;;2.42;1.35;;;9.10;99.90;;;;;;5049762;28;20607;-68
2022/09/18 03:35:24;;;;;;;2.30;1.30;;;9.00;99.90;;;;;;5050518;28;20356;-68
2022/09/18 03:37:53;;;;;;;1.20;1.10;;;9.00;99.90;;;;;;5050212;28;20208;-67
2022/09/18 03:40:20;;;;;;;1.83;1.20;;;9.00;99.90;;;;;;5050669;28;20213;-68
2022/09/18 03:42:49;;;;;;;1.48;1.20;;;9.00;99.90;;;;;;5049310;28;20259;-67
2022/09/18 03:45:16;;;;;;;1.83;1.00;;;9.00;99.90;;;;;;5050462;28;20212;-68
2022/09/18 03:47:43;;;;;;;2.65;1.23;;;9.00;99.90;;;;;;5050028;28;20205;-68
2022/09/18 03:50:10;;;;;;;1.48;1.38;;;8.90;99.90;;;;;;5050305;28;20645;-68
2022/09/18 03:52:37;;;;;;;1.10;1.00;;;8.90;99.90;;;;;;5049397;28;20615;-68
2022/09/18 03:55:06;;;;;;;2.55;1.42;;;8.90;99.90;;;;;;5050188;28;20216;-68
2022/09/18 03:57:32;;;;;;;1.30;1.20;;;8.90;99.90;;;;;;5050235;28;20647;-67
2022/09/18 03:59:59;;;;;;;1.40;1.15;;;8.90;99.90;;;;;;5050109;28;20201;-68
2022/09/18 04:02:26;;;;;;;2.35;1.35;;;8.90;99.90;;;;;;5049637;28;20212;-68
2022/09/18 04:04:52;;;;;;;2.28;1.80;;;8.90;99.90;;;;;;5050247;28;20259;-68
2022/09/18 04:07:19;;;;;;;1.70;1.30;;;8.90;99.90;;;;;;5050086;28;20256;-68
2022/09/18 04:09:46;;;;;;;1.02;0.93;;;8.90;99.90;;;;;;5050099;28;20216;-68
2022/09/18 04:12:14;;;;;;;1.80;0.98;;;8.90;99.90;;;;;;5052357;28;20231;-68
2022/09/18 04:14:41;;;;;;;1.83;0.95;;;8.90;99.90;;;;;;5053805;28;20221;-68
2022/09/18 04:17:07;;;;;;;1.42;1.10;;;8.90;99.90;;;;;;5053826;28;20685;-67
2022/09/18 04:19:34;;;;;;;3.03;1.45;;;8.90;99.90;;;;;;5053755;28;20590;-68
2022/09/18 04:22:02;;;;;;;2.92;1.10;;;9.00;99.90;;;;;;5053624;28;20204;-68
2022/09/18 04:24:29;;;;;;;1.10;1.00;;;9.00;99.90;;;;;;5053618;28;20257;-68
2022/09/18 04:26:55;;;;;;;2.13;1.10;;;9.00;99.90;;;;;;5053835;28;20208;-68
2022/09/18 04:29:23;;;;;;;1.45;1.13;;;9.00;99.90;;;;;;5053526;28;20204;-68
2022/09/18 04:31:50;;;;;;;1.95;1.38;;;9.00;99.90;;;;;;5053156;28;20616;-68
2022/09/18 04:34:17;;;;;;;3.20;1.25;;;9.00;99.90;;;;;;5053310;28;20218;-68
2022/09/18 04:36:44;;;;;;;1.88;1.20;;;9.00;99.90;;;;;;5053488;28;20209;-68
2022/09/18 04:39:11;;;;;;;1.20;1.10;;;9.00;99.90;;;;;;5053761;28;20215;-68
2022/09/18 04:41:38;;;;;;;1.40;1.20;;;9.00;99.90;;;;;;5052579;28;20205;-68
2022/09/18 04:44:05;;;;;;;1.30;1.08;;;9.00;99.90;;;;;;5053571;28;20228;-68
2022/09/18 04:46:33;;;;;;;1.65;1.25;;;9.00;99.90;;;;;;5052964;28;20205;-67
2022/09/18 04:49:00;;;;;;;1.50;1.25;;;9.00;99.90;;;;;;5053476;28;20740;-68
2022/09/18 04:51:26;;;;;;;1.77;1.20;;;9.00;99.90;;;;;;5052459;28;20205;-68
2022/09/18 04:53:53;;;;;;;4.13;1.45;;;9.00;99.90;;;;;;5053288;28;20228;-68
2022/09/18 04:56:20;;;;;;;1.60;1.23;;;9.00;99.90;;;;;;5053325;28;20218;-68
2022/09/18 04:58:46;;;;;;;1.42;1.33;;;9.00;99.90;;;;;;5052898;28;20209;-68
2022/09/18 05:01:13;;;;;;;1.48;1.25;;;9.00;99.90;;;;;;5052737;28;20212;-67
2022/09/18 05:03:41;;;;;;;1.40;1.30;;;9.00;99.90;;;;;;5052594;28;20232;-68
2022/09/18 05:06:08;;;;;;;2.78;1.60;;;9.00;99.90;;;;;;5053415;28;20202;-69
2022/09/18 05:08:36;;;;;;;1.33;1.23;;;9.00;99.90;;;;;;5052608;28;20270;-69
2022/09/18 05:11:03;;;;;;;1.10;1.00;;;9.10;99.90;;;;;;5053183;28;20224;-69
2022/09/18 05:13:30;;;;;;;2.00;1.20;;;9.10;99.90;;;;;;5052185;28;20720;-68
2022/09/18 05:15:57;;;;;;;2.10;1.30;;;9.10;99.90;;;;;;5052652;28;20602;-69
2022/09/18 05:18:24;;;;;;;2.45;1.00;;;9.10;99.90;;;;;;5052884;28;20208;-69
2022/09/18 05:20:53;;;;;;;1.27;1.17;;;9.10;99.90;;;;;;5052415;28;20224;-69
2022/09/18 05:23:20;;;;;;;1.33;1.23;;;9.20;99.90;;;;;;5051721;28;20270;-69
2022/09/18 05:25:47;;;;;;;1.50;1.40;;;9.10;99.90;;;;;;5052264;28;20206;-69
2022/09/18 05:28:14;;;;;;;1.73;1.30;;;9.20;99.90;;;;;;5052641;28;20583;-69
2022/09/18 05:30:41;;;;;;;1.00;0.90;;;9.20;99.90;;;;;;5052168;28;20649;-69
2022/09/18 05:33:09;;;;;;;5.28;1.80;;;9.20;99.90;;;;;;5049616;28;20248;-69
2022/09/18 05:35:37;;;;;;;1.80;1.13;;;9.20;99.90;;;;;;5051843;28;20688;-69
2022/09/18 05:38:06;;;;;;;1.45;0.98;;;9.20;99.90;;;;;;5052077;28;20617;-68
2022/09/18 05:40:34;;;;;;;1.23;1.13;;;9.20;99.90;;;;;;5051790;28;20677;-69
2022/09/18 05:43:01;;;;;;;1.63;1.33;;;9.20;99.90;;;;;;5051614;28;20223;-68
2022/09/18 05:45:28;;;;;;;1.10;1.00;;;9.20;99.90;;;;;;5051615;28;20208;-69
2022/09/18 05:47:57;;;;;;;1.80;1.13;;;9.20;99.90;;;;;;5052068;28;20214;-69
2022/09/18 05:50:25;;;;;;;1.35;1.17;;;9.20;99.90;;;;;;5051621;28;20206;-69
2022/09/18 05:53:01;;;;;;;1.40;1.30;;;9.20;99.90;;;;;;5051553;28;20603;-69
2022/09/18 05:55:30;;;;;;;2.20;1.30;;;9.10;99.90;;;;;;5067192;22;20307;-66
2022/09/18 05:57:58;;;;;;;4.35;1.20;;;9.10;99.90;;;;;;5031222;28;20384;-69
2022/09/18 06:00:26;;;;;;;3.05;1.10;;;9.10;99.90;;;;;;5031850;28;20783;-69
2022/09/18 06:02:54;;;;;;;2.47;1.35;;;9.20;99.90;;;;;;5030988;28;20225;-68
2022/09/18 06:05:21;;;;;;;1.52;1.27;;;9.10;99.90;;;;;;5031903;28;20210;-68
2022/09/18 06:07:48;;;;;;;1.80;1.33;;;9.10;99.90;;;;;;5031373;28;20991;-69
2022/09/18 06:10:15;;;;;;;5.10;2.17;;;9.20;99.90;;;;;;5031866;28;20210;-68
2022/09/18 06:12:43;;;;;;;2.00;1.15;;;9.20;99.90;;;;;;5030283;28;20261;-68
2022/09/18 06:15:11;;;;;;;1.77;1.50;;;9.20;99.90;;;;;;5031482;28;20622;-69
2022/09/18 06:17:38;;;;;;;3.38;1.40;;;9.20;99.90;;;;;;5031662;28;20202;-68
2022/09/18 06:20:05;;;;;;;1.40;1.20;;;9.20;99.90;;;;;;5031240;28;20202;-68
2022/09/18 06:22:33;;;;;;;3.28;1.20;;;9.20;99.90;;;;;;5030973;28;20213;-69
2022/09/18 06:24:59;;;;;;;1.48;1.38;;;9.20;99.90;;;;;;5031172;28;20213;-68
2022/09/18 06:27:26;;;;;;;1.30;1.20;;;9.30;99.90;;;;;;5031653;28;20205;-69
2022/09/18 06:29:54;;;;;;;2.45;1.50;;;9.30;99.90;;;;;;5031154;28;20616;-68
2022/09/18 06:32:22;;;;;;;1.55;1.23;;;9.30;99.90;;;;;;5030656;28;20201;-68
2022/09/18 06:34:49;;;;;;;1.75;1.38;;;9.30;99.90;;;;;;5030318;28;20213;-68
2022/09/18 06:37:16;;;;;;;5.53;1.30;;;9.30;99.90;;;;;;5031088;28;20615;-68
2022/09/18 06:39:42;;;;;;;1.27;1.15;;;9.30;99.90;;;;;;5031268;28;20237;-69
2022/09/18 06:42:09;;;;;;;2.05;1.30;;;9.30;99.90;;;;;;5030830;28;20588;-68
2022/09/18 06:44:36;;;;;;;1.48;1.10;;;9.30;99.90;;;;;;5030939;28;20801;-68
2022/09/18 06:47:04;;;;;;;1.65;1.52;;;9.40;99.90;;;;;;5031526;28;20213;-68
2022/09/18 06:49:31;;;;;;;1.70;1.60;;;9.40;99.90;;;;;;5031096;28;20206;-68
2022/09/18 06:51:57;;;;;;;2.13;1.05;;;9.40;99.90;;;;;;5030587;28;20213;-69
2022/09/18 06:54:24;;;;;;;1.63;1.52;;;9.40;99.90;;;;;;5030927;28;20225;-68
2022/09/18 06:56:51;;;;;;;1.77;1.67;;;9.50;99.90;;;;;;5030868;28;20537;-69
2022/09/18 06:59:17;;;;;;;2.03;1.83;;;9.50;99.90;;;;;;5031218;28;20626;-69
2022/09/18 07:01:46;;;;;;;4.45;1.95;;;9.60;99.90;;;;;;5029998;28;20202;-69
2022/09/18 07:04:15;;;;;;;2.13;1.58;;;9.60;99.90;;;;;;5031125;28;20229;-69
2022/09/18 07:06:44;;;;;;;6.13;1.77;;;9.60;99.90;;;;;;5029311;28;20213;-69
2022/09/18 07:09:10;;;;;;;1.35;1.25;;;9.70;99.90;;;;;;5030811;28;20731;-68
2022/09/18 07:11:38;;;;;;;2.75;1.73;;;9.70;99.90;;;;;;5028315;28;20739;-68
2022/09/18 07:14:06;;;;;;;2.08;1.88;;;9.80;99.90;;;;;;5030727;28;20229;-69
2022/09/18 07:16:33;;;;;;;5.40;1.50;;;9.80;99.90;;;;;;5030630;28;20214;-69
2022/09/18 07:19:00;;;;;;;1.42;1.27;;;9.90;99.90;;;;;;5030643;28;20206;-69
2022/09/18 07:21:28;;;;;;;2.85;1.48;;;9.80;99.90;;;;;;5030158;28;20847;-68
2022/09/18 07:23:55;;;;;;;1.60;1.50;;;9.90;99.90;;;;;;5030297;28;20223;-69
2022/09/18 07:26:21;;;;;;;2.42;1.80;;;9.90;99.90;;;;;;5030589;28;20198;-68
2022/09/18 07:28:48;;;;;;;1.60;1.50;;;9.90;99.90;;;;;;5030221;28;20253;-69
2022/09/18 07:31:15;;;;;;;1.58;1.48;;;10.00;99.90;;;;;;5029736;28;20209;-69
2022/09/18 07:33:41;;;;;;;1.20;1.10;;;9.90;99.90;;;;;;5030278;28;20602;-69
2022/09/18 07:36:08;;;;;;;2.67;1.38;;;10.00;99.90;;;;;;5030580;28;20265;-69
2022/09/18 07:38:36;;;;;;;1.77;1.15;;;10.00;99.90;;;;;;5030366;28;20210;-69
2022/09/18 07:41:03;;;;;;;1.63;1.23;;;10.00;99.90;;;;;;5030175;28;20210;-69
2022/09/18 07:43:31;;;;;;;1.50;1.40;;;10.00;99.90;;;;;;5029680;28;20229;-69
2022/09/18 07:45:58;;;;;;;1.70;1.38;;;10.00;99.90;;;;;;5033273;28;20636;-69
2022/09/18 07:48:24;;;;;;;1.52;1.38;;;10.00;99.90;;;;;;5034266;28;20215;-69
2022/09/18 07:50:51;;;;;;;1.75;1.65;;;10.00;99.90;;;;;;5034447;28;20216;-68
2022/09/18 07:53:19;;;;;;;1.30;1.20;;;10.00;99.90;;;;;;5033454;28;20230;-69
2022/09/18 07:55:47;;;;;;;1.77;1.20;;;10.00;99.90;;;;;;5033970;28;20630;-69
2022/09/18 07:58:14;;;;;;;2.28;1.35;;;10.10;99.90;;;;;;5034073;28;20209;-69
2022/09/18 08:00:41;;;;;;;1.27;1.17;;;10.00;99.90;;;;;;5033975;28;20198;-69
2022/09/18 08:03:10;;;;;;;2.40;2.15;;;10.00;99.90;;;;;;5033768;28;20596;-68
2022/09/18 08:05:37;;;;;;;2.88;1.42;;;10.00;99.90;;;;;;5033731;28;20206;-68
2022/09/18 08:08:05;;;;;;;1.40;1.20;;;10.00;99.90;;;;;;5034461;28;20210;-68
2022/09/18 08:10:32;;;;;;;2.55;1.42;;;10.00;99.90;;;;;;5033979;28;20719;-68
2022/09/18 08:13:01;;;;;;;2.85;1.40;;;10.10;99.90;;;;;;5033499;28;20229;-68
2022/09/18 08:15:28;;;;;;;1.40;1.25;;;10.10;99.90;;;;;;5033863;28;20618;-68
2022/09/18 08:17:55;;;;;;;1.48;1.30;;;10.20;99.90;;;;;;5034080;28;20214;-68
2022/09/18 08:20:22;;;;;;;1.98;1.50;;;10.20;99.90;;;;;;5034039;28;20205;-68
2022/09/18 08:22:49;;;;;;;1.70;1.50;;;10.10;99.90;;;;;;5032775;28;20255;-68
2022/09/18 08:25:17;;;;;;;1.63;1.35;;;10.10;99.90;;;;;;5033990;28;20300;-68
2022/09/18 08:27:44;;;;;;;1.42;1.33;;;10.10;99.90;;;;;;5033244;28;20206;-68
2022/09/18 08:30:15;;;;;;;1.33;1.17;;;10.10;99.90;;;;;;5034043;28;20206;-68
2022/09/18 08:32:42;;;;;;;2.28;1.73;;;10.10;99.90;;;;;;5032644;28;20236;-69
2022/09/18 08:35:10;;;;;;;1.58;1.30;;;10.10;99.90;;;;;;5033669;28;20206;-68
2022/09/18 08:37:37;;;;;;;1.50;1.40;;;10.20;99.90;;;;;;5033529;28;20244;-68
2022/09/18 08:40:07;;;;;;;1.45;1.35;;;10.10;99.90;;;;;;5033327;28;20206;-68
2022/09/18 08:42:42;;;;;;;3.05;1.77;;;10.10;99.90;;;;;;5032747;28;20295;-68
2022/09/18 08:45:32;;;;;;;1.58;1.48;;;10.20;99.90;;;;;;5033442;28;20199;-69
2022/09/18 08:48:06;;;;;;;1.90;1.58;;;10.20;99.90;;;;;;5033641;28;20575;-67
2022/09/18 08:50:36;;;;;;;1.55;1.42;;;10.20;99.90;;;;;;5032967;28;20205;-70
2022/09/18 08:53:06;;;;;;;2.38;1.42;;;10.30;99.90;;;;;;5032742;28;20237;-69
2022/09/18 08:55:36;;;;;;;2.17;1.70;;;10.30;99.90;;;;;;5033326;28;20475;-69
2022/09/18 08:58:07;;;;;;;1.52;1.42;;;10.30;99.90;;;;;;5032387;28;20206;-68
2022/09/18 09:00:40;;;;;;;1.40;1.30;;;10.30;99.90;;;;;;5033327;28;20198;-69
2022/09/18 09:03:20;;;;;;;2.88;1.75;;;10.30;99.90;;;;;;5032087;28;20728;-68
2022/09/18 09:05:49;;;;;;;1.50;1.40;;;10.30;99.90;;;;;;5031673;28;20216;-68
2022/09/18 09:08:43;;;;;;;2.80;1.65;;;10.40;99.90;;;;;;5032707;28;20206;-68
2022/09/18 09:11:16;;;;;;;3.20;1.75;;;10.40;99.90;;;;;;5031924;28;20198;-68
2022/09/18 09:14:09;;;;;;;2.83;1.75;;;10.40;99.90;;;;;;5032319;28;20250;-69
2022/09/18 09:16:43;;;;;;;1.73;1.60;;;10.40;99.90;;;;;;5030144;28;20238;-68
2022/09/18 09:19:24;;;;;;;2.63;1.70;;;10.50;99.90;;;;;;5032702;28;20608;-69
2022/09/18 09:21:57;;;;;;;2.85;1.45;;;10.50;99.90;;;;;;5032227;28;20260;-69
2022/09/18 09:24:30;;;;;;;2.22;1.85;;;10.60;99.90;;;;;;5032871;28;20226;-69
2022/09/18 09:26:58;;;;;;;1.30;1.20;;;10.60;99.90;;;;;;5030400;28;20207;-69
2022/09/18 09:29:29;;;;;;;2.15;1.92;;;10.70;99.90;;;;;;5032633;28;20206;-69
2022/09/18 09:32:00;;;;;;;1.65;1.55;;;10.70;99.90;;;;;;5031509;28;20210;-69
2022/09/18 09:34:32;;;;;;;1.65;1.35;;;10.70;99.90;;;;;;5032375;28;20226;-69
2022/09/18 09:37:03;;;;;;;1.65;1.55;;;10.80;99.90;;;;;;5030032;28;20297;-69
2022/09/18 09:39:35;;;;;;;3.65;1.30;;;10.80;99.90;;;;;;5032533;28;20257;-68
2022/09/18 09:42:09;;;;;;;2.50;1.50;;;10.80;99.90;;;;;;5031641;28;20293;-68
2022/09/18 09:44:40;;;;;;;2.25;1.40;;;10.80;99.90;;;;;;5032216;28;20221;-69
2022/09/18 09:47:19;;;;;;;1.85;1.33;;;10.80;99.90;;;;;;5032269;28;20226;-68
2022/09/18 09:49:56;;;;;;;2.17;1.50;;;10.90;99.90;;;;;;5031058;28;20677;-68
2022/09/18 09:52:25;;;;;;;2.47;2.28;;;11.00;99.90;;;;;;5029640;28;20205;-69
2022/09/18 09:54:56;;;;;;;1.70;1.20;;;11.10;99.90;;;;;;5031497;28;20224;-68
2022/09/18 09:57:30;;;;;;;3.15;1.20;;;11.20;99.90;;;;;;5032259;28;20210;-69
2022/09/18 10:00:06;;;;;;;2.42;1.42;;;11.30;99.90;;;;;;5031710;28;20678;-68
2022/09/18 10:02:44;;;;;;;3.40;1.65;;;11.40;99.90;;;;;;5031564;28;20214;-68
2022/09/18 10:05:22;;;;;;;2.45;1.35;;;11.50;99.90;;;;;;5031917;28;20562;-68
2022/09/18 10:07:55;;;;;;;2.00;1.70;;;11.60;99.90;;;;;;5031970;28;20206;-68
2022/09/18 10:10:30;;;;;;;1.52;1.42;;;11.70;99.90;;;;;;5030586;28;20206;-68
2022/09/18 10:13:01;;;;;;;1.50;1.40;;;11.70;99.90;;;;;;5012056;28;20607;-68
2022/09/18 10:15:35;;;;;;;1.80;1.70;;;11.90;99.90;;;;;;5011790;28;20226;-67
2022/09/18 10:18:06;;;;;;;5.07;1.30;;;12.00;99.90;;;;;;5011639;28;20291;-69
2022/09/18 10:20:34;;;;;;;2.03;1.80;;;12.10;99.90;;;;;;5011829;28;20225;-68
2022/09/18 10:23:06;;;;;;;2.05;1.50;;;12.20;99.90;;;;;;5010768;28;20726;-69
2022/09/18 10:25:39;;;;;;;3.78;1.70;;;12.30;99.90;;;;;;5011335;28;20580;-68
2022/09/18 10:28:06;;;;;;;1.60;1.30;;;12.30;99.90;;;;;;5011472;28;20211;-68
2022/09/18 10:30:32;;;;;;;5.03;1.88;;;12.40;99.90;;;;;;5011256;28;20689;-69
2022/09/18 10:32:59;;;;;;;1.65;1.27;;;12.50;99.90;;;;;;5010627;28;20223;-69
2022/09/18 10:35:43;;;;;;;1.40;1.30;;;12.50;99.90;;;;;;5010813;28;20318;-69
2022/09/18 10:38:31;;;;;;;1.77;1.33;;;12.50;99.90;;;;;;5010857;28;20207;-68
2022/09/18 10:41:11;;;;;;;1.95;1.30;;;12.60;99.90;;;;;;5009094;28;20524;-68
2022/09/18 10:43:51;;;;;;;2.08;1.02;;;12.70;99.90;;;;;;5008776;28;20317;-68
2022/09/18 10:46:24;;;;;;;2.17;1.10;;;12.80;99.90;;;;;;5009388;28;20199;-68
2022/09/18 10:48:51;;;;;;;1.57;1.10;;;12.80;99.90;;;;;;5008919;28;20933;-67
2022/09/18 10:51:20;;;;;;;1.93;1.00;;;12.90;99.90;;;;;;5008427;28;20465;-67
2022/09/18 10:54:03;;;;;;;1.57;1.00;;;12.90;99.90;;;;;;5008356;28;21014;-67
2022/09/18 10:56:30;;;;;;;1.40;1.20;;;12.80;99.90;;;;;;5008796;28;20556;-68
2022/09/18 10:59:12;;;;;;;1.65;1.20;;;12.70;99.90;;;;;;5009262;28;20469;-67
2022/09/18 11:01:39;;;;;;;1.70;1.40;;;12.70;99.90;;;;;;5017413;28;20206;-67
2022/09/18 11:04:13;;;;;;;1.63;1.25;;;12.70;99.90;;;;;;5026709;28;20301;-67
2022/09/18 11:06:45;;;;;;;2.60;1.30;;;12.80;99.90;;;;;;5010684;28;20203;-68
2022/09/18 11:09:16;;;;;;;2.07;1.00;;;12.90;99.90;;;;;;5011307;28;20815;-67
2022/09/18 11:11:49;;;;;;;1.30;1.10;;;13.10;99.90;;;;;;5010039;28;20988;-68
2022/09/18 11:14:19;;;;;;;1.80;1.40;;;13.30;99.90;;;;;;5010451;28;20494;-67
2022/09/18 11:16:49;;;;;;;2.20;1.27;;;13.60;99.90;;;;;;5025864;28;20468;-68
2022/09/18 11:19:26;;;;;;;4.50;1.77;;;13.70;99.90;;;;;;5030725;28;20472;-67
2022/09/18 11:21:55;;;;;;;2.57;1.10;;;13.80;99.90;;;;;;5030304;28;20496;-68
2022/09/18 11:24:25;;;;;;;0.97;0.87;;;13.90;99.90;;;;;;5030302;28;20569;-68
2022/09/18 11:26:53;;;;;;;1.10;1.00;;;13.80;99.90;;;;;;5030743;28;20492;-68
2022/09/18 11:29:25;;;;;;;2.40;1.40;;;13.80;99.90;;;;;;5030478;28;20477;-68
2022/09/18 11:31:56;;;;;;;2.13;1.73;;;13.80;99.90;;;;;;5030391;28;20468;-68
2022/09/18 11:34:27;;;;;;;2.60;1.13;;;13.70;99.90;;;;;;5029975;28;20493;-68
2022/09/18 11:36:59;;;;;;;1.50;1.17;;;13.70;99.90;;;;;;5030768;28;20464;-68
2022/09/18 11:39:34;;;;;;;1.37;1.00;;;13.90;99.90;;;;;;5030780;28;20472;-68
2022/09/18 11:42:01;;;;;;;1.43;1.10;;;14.20;99.90;;;;;;5029548;28;20465;-68
2022/09/18 11:44:31;;;;;;;3.80;0.90;;;14.50;99.90;;;;;;5030298;28;21078;-67
2022/09/18 11:47:16;;;;;;;1.30;0.73;;;14.70;99.90;;;;;;5030324;28;20864;-67
2022/09/18 11:49:47;;;;;;;1.10;0.90;;;14.80;99.90;;;;;;5030715;28;20467;-69
2022/09/18 11:52:19;;;;;;;4.57;1.10;;;14.70;99.90;;;;;;5030133;28;20469;-69
2022/09/18 11:54:52;;;;;;;2.93;1.17;;;14.60;99.90;;;;;;5030244;28;20493;-69
2022/09/18 11:57:25;;;;;;;1.47;1.00;;;14.50;99.90;;;;;;5059198;22;20502;-91
2022/09/18 11:59:58;;;;;;;1.70;1.10;;;14.30;99.90;;;;;;5045480;28;20457;-92
2022/09/18 12:05:25;;;;;;;3.00;0.93;;;14.40;99.90;;;;;;5055648;28;20488;-91
2022/09/18 12:08:01;;;;;;;1.50;1.40;;;14.30;99.90;;;;;;5053242;28;20484;-92
2022/09/18 12:10:46;;;;;;;2.20;1.20;;;14.20;99.90;;;;;;5052699;28;20944;-92
2022/09/18 12:13:28;;;;;;;0.90;0.80;;;14.10;99.90;;;;;;5052064;28;20463;-92
2022/09/18 12:16:00;;;;;;;3.63;1.20;;;14.00;99.90;;;;;;5052144;28;20492;-92
2022/09/18 12:18:31;;;;;;;2.23;1.00;;;13.90;99.90;;;;;;5053898;28;20965;-92
2022/09/18 12:21:03;;;;;;;1.57;1.30;;;13.90;99.90;;;;;;5054019;28;20464;-92
2022/09/18 12:23:42;;;;;;;0.97;0.80;;;13.80;99.90;;;;;;5052709;28;20467;-92
2022/09/18 12:26:18;;;;;;;1.50;1.07;;;13.70;99.90;;;;;;5052714;28;21079;-92
2022/09/18 12:29:04;;;;;;;3.57;1.07;;;13.80;99.90;;;;;;5052496;28;20460;-93
2022/09/18 12:31:40;;;;;;;1.27;1.10;;;14.00;99.90;;;;;;5052631;28;20475;-93
2022/09/18 12:34:14;;;;;;;2.67;1.13;;;14.40;99.90;;;;;;5055609;28;20463;-92
2022/09/18 12:36:56;;;;;;;1.60;1.17;;;14.80;99.90;;;;;;5056336;28;20483;-91
2022/09/18 12:39:38;;;;;;;3.23;1.10;;;14.90;99.90;;;;;;5056682;28;20495;-92
2022/09/18 12:42:15;;;;;;;1.70;0.80;;;14.80;99.90;;;;;;5055815;28;20475;-92
2022/09/18 12:44:58;;;;;;;3.47;1.00;;;14.60;99.90;;;;;;5056418;28;20460;-93
2022/09/18 12:47:40;;;;;;;4.50;1.10;;;14.50;99.90;;;;;;5056389;28;20487;-92
2022/09/18 12:50:22;;;;;;;1.63;1.03;;;14.60;99.90;;;;;;5055380;28;20460;-92
2022/09/18 12:53:02;;;;;;;1.57;0.80;;;14.90;99.90;;;;;;5055735;28;20507;-94
2022/09/18 12:55:57;;;;;;;1.37;0.97;;;15.10;99.90;;;;;;5060941;28;20483;-91
2022/09/18 12:58:52;;;;;;;2.03;1.10;;;15.00;99.90;;;;;;5056899;28;20471;-92
2022/09/18 13:01:27;;;;;;;1.03;0.80;;;14.90;99.90;;;;;;5056846;28;20466;-93
2022/09/18 13:03:56;;;;;;;1.07;0.93;;;14.80;99.90;;;;;;5057089;28;20455;-92
2022/09/18 13:06:35;;;;;;;0.90;0.77;;;14.60;99.90;;;;;;5055038;28;20480;-92
2022/09/18 13:09:11;;;;;;;1.40;0.90;;;14.50;99.90;;;;;;5057002;28;20460;-91
2022/09/18 13:11:43;;;;;;;1.83;0.97;;;14.40;99.90;;;;;;5056463;28;20456;-92
2022/09/18 13:14:17;;;;;;;1.20;1.10;;;14.20;99.90;;;;;;5055297;28;20468;-92